Terminal Aerodrome Forecast
Issued by NWS Wilmington, OH

Current Version | Previous Version | Graphics & Text | Print | Product List | Glossary On
Versions: 1 2 3 4 5 6 7 8 9 10 11 12 13 14 15 16 17
000
FTUS41 KILN 171135
TAFDAY
TAF
KDAY 171135Z 1712/1812 19010KT P6SM VCSH SCT040 BKN100
     FM171600 21013G20KT P6SM -SHRA VCTS BKN040CB
     FM180200 22010KT P6SM BKN120
     FM180700 24007KT 5SM BR SCT015=

USA.gov is the U.S. government's official web portal to all federal, state and local government web resources and services.